Latest Weather Observations for Hogan Island

IDV60801

Issued at 5:32 pm EDT Saturday 25 February 2017 (issued every 30 minutes, with the page automatically refreshed every 10 minutes)

About weather observations | Map of weather stations | Latest weather observations for VIC | Other Formats
Station Details ID: 200838 Name: HOGAN ISLAND Lat: -39.22 Lon: 146.98 Height: 116.0 m
Data from the previous 72 hours. | See also: Recent months at Hogan Island
Date/Time
EDT
Temp
°C
App
Temp
°C
Dew
Point
°C
Rel
Hum
%
Delta-T
°C
Wind Press
QNH
hPa
Press
MSL
hPa
Rain since
9am
mm
Dir  Spd
km/h
Gust
km/h
Spd
kts
Gust
kts
25/05:30pm 15.7 - 16.2 - - E 54 65 29 35 1023.6 - 1.6
25/05:00pm 16.0 - 16.5 - - E 57 65 31 35 1023.4 - 1.6
25/04:30pm 16.7 - 17.0 - - E 52 59 28 32 1023.5 - 1.6
25/04:00pm 16.4 - 16.9 - - E 56 65 30 35 1023.4 - 1.6
25/03:30pm 16.3 - 16.8 - - E 59 67 32 36 1023.2 - 1.6
25/03:00pm 16.3 - 17.1 - - E 56 65 30 35 1023.4 1023.1 1.6
25/02:30pm 16.1 - - - - E 52 61 28 33 1023.7 - 1.6
25/02:00pm 14.8 - - - - E 54 63 29 34 1024.0 - 1.6
25/01:30pm 14.7 - - - - E 48 61 26 33 1024.4 - 1.6
25/01:00pm 15.0 - - - - E 43 50 23 27 1024.7 - 1.4
25/12:30pm 14.5 - - - - E 43 52 23 28 1024.8 - 1.4
25/12:00pm 14.5 - 15.6 - - E 32 46 17 25 1024.9 1024.6 1.0
25/11:47am 14.3 - 15.2 - - ENE 24 33 13 18 1025.1 - 0.2
25/11:30am 14.5 - 15.3 - - E 37 41 20 22 1025.2 - 0.0
25/11:27am 14.6 - 15.4 - - E 37 41 20 22 1025.2 - 0.0
25/11:00am 17.0 - 17.2 - - SSE 20 24 11 13 1025.3 - 0.0
25/10:30am 17.7 18.3 17.7 100 0.0 SSW 11 19 6 10 1025.2 - 0.0
25/10:00am 17.8 18.4 17.8 100 0.0 SW 11 15 6 8 1025.0 - 0.0
25/09:30am 17.0 - 17.2 - - SW 9 13 5 7 1024.8 - 0.0
25/09:00am 15.7 - 15.9 - - SSW 7 9 4 5 1024.6 1024.3 0.0
25/08:30am 14.9 - 15.1 - - WSW 11 15 6 8 1024.3 - 0.0
25/08:00am 15.0 - 15.3 - - WSW 7 11 4 6 1024.3 - 0.0
25/07:30am 14.1 - 14.4 - - S 4 6 2 3 1023.9 - 0.0
25/07:00am 13.2 - 13.7 - - SSW 7 11 4 6 1023.8 - 0.0
25/06:30am 13.0 - 13.5 - - S 11 17 6 9 1023.8 - 0.0
25/06:00am 13.1 - 13.6 - - SW 11 15 6 8 1023.5 1023.2 0.0
25/05:30am 13.5 - 14.0 - - WSW 19 22 10 12 1023.1 - 0.0
25/05:00am 13.6 - 14.1 - - SW 19 22 10 12 1023.1 - 0.0
25/04:30am 13.7 - 14.0 - - SW 20 24 11 13 1023.2 - 0.0
25/04:00am 13.8 - 14.3 - - SW 22 26 12 14 1023.2 - 0.0
25/03:30am 14.0 - 14.5 - - SW 24 30 13 16 1023.2 - 0.0
25/03:00am 14.2 - 14.7 - - WSW 26 32 14 17 1023.3 1023.0 0.0
25/02:30am 14.3 - 14.8 - - SW 26 32 14 17 1023.4 - 0.0
25/02:00am 14.4 - 14.7 - - SW 30 35 16 19 1023.5 - 0.0
25/01:30am 14.6 - 14.9 - - SW 28 35 15 19 1023.6 - 0.0
25/01:00am 14.6 - 14.9 - - SW 32 35 17 19 1023.6 - 0.0
25/12:30am 14.9 - 15.2 - - SW 32 39 17 21 1023.7 - 0.0
25/12:00am 14.8 - 15.1 - - SW 32 39 17 21 1023.8 1023.5 0.0
 
Date/Time
EDT
Temp
°C
App
Temp
°C
Dew
Point
°C
Rel
Hum
%
Delta-T
°C
Wind Press
QNH
hPa
Press
MSL
hPa
Rain since
9am
mm
Dir  Spd
km/h
Gust
km/h
Spd
kts
Gust
kts
24/11:30pm 14.8 - 15.1 - - WSW 35 41 19 22 1023.8 - 0.0
24/11:00pm 14.9 - 15.2 - - WSW 39 44 21 24 1023.9 - 0.0
24/10:30pm 15.0 - 15.3 - - WSW 39 48 21 26 1024.1 - 0.0
24/10:00pm 15.0 - 15.3 - - WSW 41 46 22 25 1024.1 - 0.0
24/09:30pm 15.2 - 15.4 - - WSW 44 50 24 27 1023.9 - 0.0
24/09:00pm 15.3 - 15.5 - - WSW 46 54 25 29 1023.5 1023.2 0.0
24/08:30pm 15.2 - 15.4 - - WSW 52 59 28 32 1023.2 - 0.0
24/08:00pm 15.4 6.9 15.4 100 0.0 WSW 54 61 29 33 1022.7 - 0.0
24/07:30pm 15.8 8.2 15.8 100 0.0 WSW 50 57 27 31 1022.6 - 0.0
24/07:00pm 16.3 8.8 16.1 99 0.1 WSW 50 57 27 31 1022.6 - 0.0
24/06:30pm 17.0 9.7 16.5 97 0.3 WSW 50 57 27 31 1022.7 - 0.0
24/06:00pm 17.2 9.5 15.5 90 1.0 WSW 50 57 27 31 1022.6 1022.3 0.0
24/05:30pm 17.4 10.0 16.3 93 0.7 WSW 50 57 27 31 1022.4 - 0.0
24/05:00pm 17.9 10.7 17.7 99 0.1 W 52 61 28 33 1022.5 - 0.0
24/04:30pm 16.8 8.0 15.7 93 0.6 WSW 56 63 30 34 1022.4 - 0.0
24/04:00pm 18.3 10.5 15.2 82 1.8 WSW 50 59 27 32 1022.4 - 0.0
24/03:30pm 18.1 9.6 15.4 84 1.6 WSW 54 63 29 34 1022.3 - 0.0
24/03:00pm 18.3 10.6 15.6 84 1.6 WSW 50 57 27 31 1022.6 1022.3 0.0
24/02:30pm 17.8 9.9 16.0 89 1.1 WSW 52 59 28 32 1022.8 - 0.0
24/02:00pm 16.5 8.6 15.9 96 0.4 WSW 52 63 28 34 1022.8 - 0.0
24/01:30pm 17.3 10.8 16.5 95 0.5 WSW 46 57 25 31 1022.8 - 0.0
24/01:00pm 16.0 8.4 15.7 98 0.2 WSW 50 57 27 31 1023.0 - 0.0
24/12:30pm 17.1 10.4 15.1 88 1.2 WSW 44 57 24 31 1023.1 - 0.0
24/12:00pm 16.4 9.4 15.3 93 0.6 WSW 46 54 25 29 1023.3 1023.0 0.0
24/11:30am 16.2 9.9 15.6 96 0.4 WSW 43 48 23 26 1023.4 - 0.0
24/11:00am 16.3 10.1 14.8 91 0.9 W 41 52 22 28 1023.5 - 0.0
24/10:53am 16.0 9.6 14.4 90 0.9 W 41 52 22 28 1023.5 - 0.0
24/10:30am 15.6 9.4 15.0 96 0.3 WSW 41 48 22 26 1023.4 - 0.0
24/10:00am 15.9 10.8 15.7 99 0.1 W 37 43 20 23 1023.3 - 0.0
24/09:30am 15.6 9.6 15.4 99 0.1 WSW 41 46 22 25 1023.2 - 0.0
24/09:00am 15.1 9.3 14.9 99 0.1 WSW 39 48 21 26 1023.1 1022.8 0.0
24/08:30am 15.0 9.6 15.0 100 0.0 WSW 37 44 20 24 1022.9 - 0.0
24/08:00am 14.8 10.1 14.8 100 0.0 WSW 33 41 18 22 1022.5 - 0.0
24/07:30am 14.8 8.9 14.8 100 0.0 WSW 39 48 21 26 1022.3 - 0.0
24/07:00am 15.0 - 15.2 - - WSW 39 46 21 25 1022.0 - 0.0
24/06:30am 15.0 - 15.2 - - W 37 44 20 24 1021.7 - 0.0
24/06:00am 15.0 - 15.2 - - WSW 37 43 20 23 1021.4 1021.1 0.0
24/05:30am 15.2 - 15.5 - - W 37 43 20 23 1021.2 - 0.0
24/05:00am 15.1 - 15.3 - - WSW 35 43 19 23 1021.1 - 0.0
24/04:30am 15.1 - 15.4 - - WSW 37 46 20 25 1021.0 - 0.0
24/04:00am 15.3 - 15.6 - - WSW 35 41 19 22 1021.0 - 0.0
24/03:30am 15.2 - 15.5 - - WSW 37 44 20 24 1021.0 - 0.0
24/03:00am 15.2 - 15.5 - - WSW 41 48 22 26 1021.0 1020.7 0.0
24/02:30am 15.4 - 15.9 - - WSW 37 43 20 23 1021.1 - 0.0
24/02:00am 15.6 - 16.1 - - WSW 35 43 19 23 1021.2 - 0.0
24/01:30am 15.5 - 16.0 - - WSW 43 48 23 26 1021.4 - 0.0
24/01:00am 15.5 - 16.3 - - WSW 39 46 21 25 1021.5 - 0.0
24/12:30am 15.7 - 16.3 - - WSW 39 46 21 25 1021.3 - 0.0
24/12:00am 15.8 - 16.4 - - WSW 48 57 26 31 1021.1 1020.8 0.0
 
Date/Time
EDT
Temp
°C
App
Temp
°C
Dew
Point
°C
Rel
Hum
%
Delta-T
°C
Wind Press
QNH
hPa
Press
MSL
hPa
Rain since
9am
mm
Dir  Spd
km/h
Gust
km/h
Spd
kts
Gust
kts
23/11:30pm 15.5 - 16.1 - - WSW 46 54 25 29 1020.9 - 0.0
23/11:00pm 15.7 - 16.5 - - WSW 50 59 27 32 1020.6 - 0.0
23/10:30pm 15.8 - 16.6 - - WSW 46 56 25 30 1020.6 - 0.0
23/10:00pm 15.8 - 16.7 - - WSW 48 57 26 31 1020.5 - 0.0
23/09:30pm 15.9 - 16.8 - - WSW 41 48 22 26 1020.7 - 0.0
23/09:00pm 15.9 - 16.8 - - WSW 44 50 24 27 1020.1 1019.8 0.0
23/08:30pm 16.6 - 17.4 - - WSW 50 57 27 31 1019.3 - 0.0
23/08:00pm 16.8 - 17.4 - - W 50 54 27 29 1018.8 - 0.0
23/07:30pm 17.2 - 17.7 - - W 50 57 27 31 1018.5 - 0.0
23/07:00pm 17.9 - 18.2 - - WSW 48 57 26 31 1018.4 - 0.0
23/06:30pm 18.2 - 18.5 - - W 52 61 28 33 1017.8 - 0.0
23/06:00pm 18.6 - 18.8 - - W 56 63 30 34 1017.3 1017.0 0.0
23/05:30pm 19.2 - 19.4 - - W 43 52 23 28 1017.5 - 0.0
23/05:00pm 19.3 12.4 19.3 100 0.0 W 54 59 29 32 1017.0 - 0.0
23/04:30pm 20.3 15.0 20.3 100 0.0 W 48 54 26 29 1016.9 - 0.0
23/04:00pm 19.8 - 20.0 - - W 50 57 27 31 1016.9 - 0.0
23/03:30pm 20.6 - 20.8 - - W 48 56 26 30 1016.9 - 0.0
23/03:00pm 20.1 - 20.3 - - W 57 65 31 35 1016.4 1016.1 0.0
23/02:30pm 20.1 - 20.3 - - W 57 67 31 36 1016.4 - 0.0
23/02:00pm 19.9 - 20.1 - - W 61 70 33 38 1016.2 - 0.0
23/01:30pm 20.2 - 20.4 - - W 56 67 30 36 1016.3 - 0.0
23/01:00pm 20.4 - 20.6 - - W 56 67 30 36 1016.3 - 0.0
23/12:30pm 20.3 - 20.5 - - W 56 63 30 34 1016.0 - 0.0
23/12:00pm 19.9 - 20.1 - - W 57 65 31 35 1015.8 1015.5 0.0
23/11:30am 20.2 - 20.4 - - W 48 54 26 29 1015.8 - 0.0
23/11:00am - - - - - W 46 54 25 29 - - -
23/10:30am - - - - - W 50 57 27 31 - - -
23/10:00am 19.1 - 19.4 - - W 54 59 29 32 1015.1 - 0.0
23/09:30am 18.9 - 19.1 - - WNW 52 61 28 33 1014.8 - 0.0
23/09:00am 18.7 - 19.0 - - WNW 35 43 19 23 1014.9 1014.6 0.0
23/08:30am 18.4 - 18.7 - - W 30 35 16 19 1014.6 - 0.0
23/08:00am 17.9 - 18.4 - - W 32 35 17 19 1014.0 - 0.0
23/07:30am 17.4 - 18.0 - - W 30 33 16 18 1013.6 - 0.0
23/07:00am 17.2 - 17.8 - - W 33 37 18 20 1013.0 - 0.0
23/06:30am 17.2 - 17.7 - - W 35 39 19 21 1012.5 - 0.0
23/06:00am 17.4 - 17.7 - - W 39 43 21 23 1012.0 1011.7 0.0
23/05:30am 17.6 - 17.9 - - WSW 41 46 22 25 1011.7 - 0.0
23/05:00am 17.5 - 17.8 - - WSW 37 43 20 23 1011.6 - 0.0
23/04:30am 17.7 - 18.0 - - WSW 41 46 22 25 1011.2 - 0.0
23/04:00am 17.8 - 18.0 - - WSW 43 48 23 26 1011.0 - 0.0
23/03:30am 18.0 - 18.2 - - WSW 46 50 25 27 1010.7 - 0.0
23/03:00am 18.2 - 18.5 - - WSW 50 56 27 30 1010.5 1010.3 0.0
23/02:30am 18.7 - 19.0 - - W 50 57 27 31 1010.4 - 0.0
23/02:00am 19.2 - 20.0 - - W 43 54 23 29 1010.0 - 0.0
23/01:55am 19.2 - 20.1 - - W 44 61 24 33 1010.0 - 0.0
23/01:31am 19.2 - - - - NW 50 76 27 41 1009.3 - 0.0
23/01:30am 19.4 - - - - NW 44 57 24 31 1009.7 - 0.0
23/01:00am 18.6 - - - - NNE 39 48 21 26 1008.3 - 0.0
23/12:30am 18.6 - - - - NE 35 44 19 24 1008.6 - 0.0
23/12:00am 18.3 - - - - NE 33 44 18 24 1009.1 1008.8 0.0
 
Date/Time
EDT
Temp
°C
App
Temp
°C
Dew
Point
°C
Rel
Hum
%
Delta-T
°C
Wind Press
QNH
hPa
Press
MSL
hPa
Rain since
9am
mm
Dir  Spd
km/h
Gust
km/h
Spd
kts
Gust
kts
22/11:30pm 18.0 - - - - ENE 33 39 18 21 1010.0 - 0.0
22/11:00pm 17.8 - - - - ENE 33 39 18 21 1010.6 - 0.0
22/10:30pm 17.9 - - - - ENE 33 37 18 20 1011.0 - 0.0
22/10:00pm 17.6 - - - - ENE 35 43 19 23 1011.2 - 0.0
22/09:30pm 17.3 - - - - ENE 32 37 17 20 1011.5 - 0.0
22/09:00pm 17.3 - - - - NE 32 39 17 21 1011.7 1011.4 0.0
22/08:30pm 17.2 - 18.3 - - ENE 28 32 15 17 1011.8 - 0.0
22/08:00pm 17.4 - 18.3 - - ENE 30 35 16 19 1011.6 - 0.0
22/07:30pm 17.7 - 18.5 - - ENE 26 30 14 16 1011.8 - 0.0
22/07:00pm 17.9 - 18.4 - - ENE 24 28 13 15 1011.8 - 0.0
22/06:30pm 18.1 - 18.6 - - E 22 26 12 14 1011.9 - 0.0
22/06:00pm 18.9 - 19.4 - - E 22 28 12 15 1011.7 1011.4 0.0

Other Formats:

Comma delimited format used in spreadsheet applications
http://www.bom.gov.au/fwo/IDV60801/IDV60801.94949.axf

JavaScript Object Notation format (JSON) in row-major order
http://www.bom.gov.au/fwo/IDV60801/IDV60801.94949.json